Time;durP1;ratioP1;P1;durP2;ratioP2;P2;SDS_P1;SDS_P2;PMS_P1;PMS_P2;Temp;Humidity;BMP_temperature;BMP_pressure;BME280_temperature;BME280_humidity;BME280_pressure;Samples;Min_cycle;Max_cycle;Signal;HPM_P1;HPM_P2
2022/05/03 00:01:53;;;;;;;9.93;9.10;;;11.90;99.90;;;;;;6275354;28;20483;-53
2022/05/03 00:05:03;;;;;;;9.60;8.67;;;12.00;99.90;;;;;;6276245;28;20251;-54
2022/05/03 00:08:11;;;;;;;10.03;9.03;;;12.10;99.90;;;;;;6280197;28;20236;-53
2022/05/03 00:11:29;;;;;;;9.07;8.40;;;12.10;99.90;;;;;;6278840;28;20257;-55
2022/05/03 00:14:37;;;;;;;9.37;8.50;;;12.20;99.90;;;;;;6275858;28;20394;-52
2022/05/03 00:17:49;;;;;;;9.07;8.37;;;12.20;99.90;;;;;;6278930;28;20254;-53
2022/05/03 00:20:58;;;;;;;9.73;8.83;;;12.30;99.90;;;;;;6281724;28;20233;-54
2022/05/03 00:24:01;;;;;;;9.10;8.30;;;12.30;99.90;;;;;;6281261;28;20237;-53
2022/05/03 00:27:05;;;;;;;8.27;7.77;;;12.30;99.90;;;;;;6259556;28;20448;-54
2022/05/03 00:30:09;;;;;;;9.70;8.80;;;12.40;99.90;;;;;;6256855;28;20267;-54
2022/05/03 00:33:13;;;;;;;9.60;8.90;;;12.40;99.90;;;;;;6264061;28;20237;-54
2022/05/03 00:36:15;;;;;;;8.97;8.27;;;12.40;99.90;;;;;;6270216;28;20351;-53
2022/05/03 00:39:18;;;;;;;9.47;8.77;;;12.40;99.90;;;;;;6280143;28;20233;-54
2022/05/03 00:42:25;;;;;;;9.43;8.73;;;12.40;99.90;;;;;;6278524;28;20707;-53
2022/05/03 00:45:36;;;;;;;8.90;8.30;;;12.40;99.90;;;;;;6271808;28;20308;-53
2022/05/03 00:48:52;;;;;;;8.57;7.77;;;12.40;99.90;;;;;;6261662;28;20600;-54
2022/05/03 00:52:04;;;;;;;9.23;8.43;;;12.40;99.90;;;;;;6281458;28;20441;-53
2022/05/03 00:55:35;;;;;;;9.37;8.47;;;12.40;99.90;;;;;;6270632;28;20496;-54
2022/05/03 00:59:01;;;;;;;9.40;8.60;;;12.30;99.90;;;;;;6264021;28;20230;-53
2022/05/03 01:02:06;;;;;;;8.63;8.13;;;12.30;99.90;;;;;;6272567;28;20942;-54
2022/05/03 01:05:10;;;;;;;8.93;8.30;;;12.30;99.90;;;;;;6284070;28;20298;-52
2022/05/03 01:08:25;;;;;;;10.17;9.27;;;12.20;99.90;;;;;;6283900;28;20553;-53
2022/05/03 01:11:35;;;;;;;9.33;8.43;;;12.20;99.90;;;;;;6283328;28;20238;-54
2022/05/03 01:14:58;;;;;;;12.13;9.73;;;12.20;99.90;;;;;;6281904;28;20717;-53
2022/05/03 01:18:18;;;;;;;8.73;8.13;;;12.20;99.90;;;;;;6287184;28;20233;-54
2022/05/03 01:21:46;;;;;;;10.10;9.13;;;12.10;99.90;;;;;;6293349;28;20502;-53
2022/05/03 01:25:08;;;;;;;9.83;8.90;;;12.10;99.90;;;;;;6259976;28;20860;-54
2022/05/03 01:28:23;;;;;;;9.77;9.17;;;12.00;99.90;;;;;;6260428;28;20495;-54
2022/05/03 01:31:29;;;;;;;10.27;9.27;;;12.00;99.90;;;;;;6260159;28;20226;-54
2022/05/03 01:34:32;;;;;;;10.17;9.33;;;11.90;99.90;;;;;;6287536;28;20233;-53
2022/05/03 01:37:56;;;;;;;10.27;9.30;;;11.90;99.90;;;;;;6307969;28;20260;-54
2022/05/03 01:41:14;;;;;;;11.10;10.20;;;11.80;99.90;;;;;;6305832;28;20248;-54
2022/05/03 01:44:35;;;;;;;13.87;9.47;;;11.80;99.90;;;;;;6287658;28;20720;-53
2022/05/03 01:47:55;;;;;;;11.97;9.03;;;11.70;99.90;;;;;;6275269;28;20389;-54
2022/05/03 01:51:09;;;;;;;10.73;9.10;;;11.70;99.90;;;;;;6296635;28;20667;-54
2022/05/03 01:54:28;;;;;;;9.43;8.77;;;11.70;99.90;;;;;;6296803;28;20251;-54
2022/05/03 01:57:44;;;;;;;10.47;9.50;;;11.60;99.90;;;;;;6259430;28;20584;-54
2022/05/03 02:00:56;;;;;;;9.73;8.93;;;11.50;99.90;;;;;;6259741;28;20272;-52
2022/05/03 02:04:14;;;;;;;9.97;9.17;;;11.50;99.90;;;;;;6290756;28;20237;-54
2022/05/03 02:07:25;;;;;;;10.00;9.27;;;11.50;99.90;;;;;;6301767;28;20236;-53
2022/05/03 02:10:54;;;;;;;9.80;9.13;;;11.50;99.90;;;;;;6307538;28;20506;-53
2022/05/03 02:17:52;;;;;;;10.13;9.23;;;11.40;99.90;;;;;;6263066;28;20487;-54
2022/05/03 02:21:21;;;;;;;10.30;9.60;;;11.30;99.90;;;;;;6259195;28;20240;-53
2022/05/03 02:24:36;;;;;;;11.30;10.20;;;11.20;99.90;;;;;;6262355;28;20703;-54
2022/05/03 02:27:47;;;;;;;10.73;10.00;;;11.10;99.90;;;;;;6272778;28;20241;-53
2022/05/03 02:30:51;;;;;;;11.90;10.77;;;11.00;99.90;;;;;;6282684;28;20740;-54
2022/05/03 02:34:05;;;;;;;12.10;10.17;;;10.90;99.90;;;;;;6267556;28;20359;-53
2022/05/03 02:37:18;;;;;;;11.03;10.13;;;10.90;99.90;;;;;;6271764;28;20460;-53
2022/05/03 02:40:27;;;;;;;10.13;9.40;;;10.90;99.90;;;;;;6280135;28;20233;-57
2022/05/03 02:43:31;;;;;;;10.40;9.50;;;10.80;99.90;;;;;;6283929;28;20230;-54
2022/05/03 02:46:49;;;;;;;9.80;9.10;;;10.80;99.90;;;;;;6282466;28;20276;-52
2022/05/03 02:50:03;;;;;;;11.07;10.07;;;10.70;99.90;;;;;;6284006;28;20905;-54
2022/05/03 02:53:10;;;;;;;9.63;8.93;;;10.60;99.90;;;;;;6283147;28;20230;-53
2022/05/03 02:56:21;;;;;;;10.40;9.40;;;10.50;99.90;;;;;;6276928;28;20264;-53
2022/05/03 03:03:00;;;;;;;10.50;9.60;;;10.50;99.90;;;;;;6263209;28;20244;-54
2022/05/03 03:06:04;;;;;;;11.03;10.03;;;10.40;99.90;;;;;;6280691;28;20233;-53
2022/05/03 03:09:18;;;;;;;10.83;9.90;;;10.40;99.90;;;;;;6286414;28;20240;-53
2022/05/03 03:12:31;;;;;;;11.57;10.47;;;10.40;99.90;;;;;;6261857;28;20526;-54
2022/05/03 03:15:39;;;;;;;10.27;9.40;;;10.40;99.90;;;;;;6278616;28;20332;-53
2022/05/03 03:18:47;;;;;;;9.83;9.03;;;10.40;99.90;;;;;;6282890;28;20244;-53
2022/05/03 03:21:51;;;;;;;13.07;9.80;;;10.40;99.90;;;;;;6280738;28;20225;-52
2022/05/03 03:24:57;;;;;;;10.23;8.33;;;10.40;99.90;;;;;;6281320;28;20245;-54
2022/05/03 03:28:02;;;;;;;11.00;10.20;;;10.40;99.90;;;;;;6281317;28;20376;-52
2022/05/03 03:31:07;;;;;;;10.43;9.63;;;10.30;99.90;;;;;;6261632;28;20475;-54
2022/05/03 03:34:12;;;;;;;11.03;10.00;;;10.30;99.90;;;;;;6268585;28;20322;-58
2022/05/03 03:37:16;;;;;;;9.93;9.03;;;10.30;99.90;;;;;;6280382;28;20442;-53
2022/05/03 03:40:21;;;;;;;10.63;9.73;;;10.30;99.90;;;;;;6272142;28;20514;-53
2022/05/03 03:43:24;;;;;;;11.77;9.53;;;10.20;99.90;;;;;;6277025;28;20237;-54
2022/05/03 03:46:27;;;;;;;10.10;9.27;;;10.20;99.90;;;;;;6274790;28;20790;-53
2022/05/03 03:49:31;;;;;;;9.93;9.23;;;10.10;99.90;;;;;;6279432;28;20725;-54
2022/05/03 03:52:34;;;;;;;10.27;9.47;;;10.10;99.90;;;;;;6279426;28;20545;-52
2022/05/03 03:55:39;;;;;;;9.67;8.93;;;10.10;99.90;;;;;;6278541;28;20503;-53
2022/05/03 03:58:42;;;;;;;10.20;9.37;;;10.10;99.90;;;;;;6274401;28;20655;-53
2022/05/03 04:01:44;;;;;;;9.63;9.00;;;10.10;99.90;;;;;;6282055;28;20618;-53
2022/05/03 04:04:48;;;;;;;11.23;10.13;;;10.00;99.90;;;;;;6280257;28;20225;-54
2022/05/03 04:07:52;;;;;;;10.03;9.23;;;10.00;99.90;;;;;;6275637;28;20275;-54
2022/05/03 04:11:15;;;;;;;9.80;8.90;;;10.10;99.90;;;;;;6296496;28;21045;-53
2022/05/03 04:14:18;;;;;;;9.60;8.67;;;10.10;99.90;;;;;;6299661;28;20232;-53
2022/05/03 04:17:21;;;;;;;10.50;9.60;;;10.10;99.90;;;;;;6304479;28;20367;-53
2022/05/03 04:20:24;;;;;;;10.30;9.30;;;10.10;99.90;;;;;;6305897;28;20697;-53
2022/05/03 04:23:27;;;;;;;14.20;10.57;;;10.20;99.90;;;;;;6298378;28;20655;-53
2022/05/03 04:26:35;;;;;;;9.13;8.53;;;10.20;99.90;;;;;;6295410;28;20243;-52
2022/05/03 04:29:37;;;;;;;8.23;7.73;;;10.20;99.90;;;;;;6297269;28;20378;-53
2022/05/03 04:32:44;;;;;;;9.07;8.37;;;10.30;99.90;;;;;;6281037;28;20466;-53
2022/05/03 04:35:47;;;;;;;8.87;8.20;;;10.40;99.90;;;;;;6266416;28;20312;-53
2022/05/03 04:38:53;;;;;;;8.50;7.90;;;10.40;99.90;;;;;;6279796;28;20537;-54
2022/05/03 04:41:57;;;;;;;8.67;7.97;;;10.40;99.90;;;;;;6274825;28;20787;-53
2022/05/03 04:45:00;;;;;;;8.33;7.83;;;10.50;99.90;;;;;;6281142;28;20294;-53
2022/05/03 04:48:02;;;;;;;10.13;9.23;;;10.50;99.90;;;;;;6274634;28;20313;-53
2022/05/03 04:51:05;;;;;;;10.20;9.30;;;10.60;99.90;;;;;;6280734;28;20842;-53
2022/05/03 04:54:08;;;;;;;11.23;10.17;;;10.60;99.90;;;;;;6284439;28;20236;-53
2022/05/03 04:57:12;;;;;;;9.20;8.50;;;10.70;99.90;;;;;;6306062;28;20252;-53
2022/05/03 05:00:16;;;;;;;9.23;8.53;;;10.80;99.90;;;;;;6313786;28;20602;-53
2022/05/03 05:03:18;;;;;;;9.87;8.87;;;10.90;99.90;;;;;;6304634;28;20236;-53
2022/05/03 05:06:21;;;;;;;9.40;8.60;;;11.00;99.90;;;;;;6310382;28;20655;-53
2022/05/03 05:09:24;;;;;;;9.50;8.50;;;11.00;99.90;;;;;;6311980;28;20236;-54
2022/05/03 05:12:30;;;;;;;8.50;7.80;;;11.10;99.90;;;;;;6310209;28;20236;-53
2022/05/03 05:15:33;;;;;;;10.83;8.13;;;11.20;99.90;;;;;;6306042;28;20241;-53
2022/05/03 05:18:36;;;;;;;8.83;7.97;;;11.30;99.90;;;;;;6307467;28;20316;-54
2022/05/03 05:21:38;;;;;;;8.63;7.90;;;11.30;99.90;;;;;;6305380;28;20733;-53
2022/05/03 05:24:41;;;;;;;7.97;7.37;;;11.40;99.90;;;;;;6279244;28;20316;-54
2022/05/03 05:27:45;;;;;;;8.20;7.37;;;11.40;99.90;;;;;;6277080;28;20234;-54
2022/05/03 05:30:49;;;;;;;7.27;6.63;;;11.50;99.90;;;;;;6279779;28;20237;-53
2022/05/03 05:33:52;;;;;;;6.30;6.00;;;11.60;99.90;;;;;;6298687;28;20245;-53
2022/05/03 05:36:55;;;;;;;6.73;6.23;;;11.60;99.90;;;;;;6306135;28;20235;-54
2022/05/03 05:39:57;;;;;;;6.50;6.10;;;11.70;99.90;;;;;;6302214;28;20249;-53
2022/05/03 05:43:02;;;;;;;7.10;6.60;;;11.80;99.90;;;;;;6313007;27;20715;-53
2022/05/03 05:46:04;;;;;;;6.23;5.73;;;11.80;99.90;;;;;;6310917;28;20717;-56
2022/05/03 05:49:07;;;;;;;6.00;5.67;;;11.80;99.90;;;;;;6309638;28;20605;-53
2022/05/03 05:55:31;;;;;;;6.67;6.17;;;12.00;99.90;;;;;;6305443;28;20289;-54
2022/05/03 05:58:36;;;;;;;6.70;6.00;;;12.10;99.90;;;;;;6304810;28;20514;-54
2022/05/03 06:01:40;;;;;;;6.70;6.03;;;12.30;99.90;;;;;;6309609;28;20492;-53
2022/05/03 06:04:43;;;;;;;11.07;6.53;;;12.40;99.90;;;;;;6311125;28;20241;-55
2022/05/03 06:07:46;;;;;;;5.40;5.10;;;12.50;99.90;;;;;;6306618;28;20585;-53
2022/05/03 06:10:49;;;;;;;5.30;5.00;;;12.60;99.90;;;;;;6310343;28;20451;-54
2022/05/03 06:13:54;;;;;;;5.57;5.10;;;12.80;99.90;;;;;;6310319;28;20589;-54
2022/05/03 06:17:01;;;;;;;5.13;4.63;;;12.70;99.90;;;;;;6307189;28;20254;-53
2022/05/03 06:20:04;;;;;;;4.87;4.43;;;12.90;99.90;;;;;;6312848;28;20320;-54
2022/05/03 06:23:07;;;;;;;5.87;3.80;;;12.90;99.90;;;;;;6311758;28;20620;-54
2022/05/03 06:26:10;;;;;;;3.97;3.63;;;13.10;99.90;;;;;;6307329;28;20327;-55
2022/05/03 06:29:21;;;;;;;4.03;3.73;;;13.30;99.90;;;;;;6311276;28;20338;-52
2022/05/03 06:32:24;;;;;;;3.83;3.60;;;13.40;99.90;;;;;;6313800;28;20259;-54
2022/05/03 06:35:28;;;;;;;5.60;3.97;;;13.60;99.90;;;;;;6301819;28;20314;-53
2022/05/03 06:38:31;;;;;;;3.97;3.50;;;13.60;99.90;;;;;;6308393;28;20243;-54
2022/05/03 06:41:33;;;;;;;3.83;3.50;;;13.60;99.90;;;;;;6303945;28;20289;-52
2022/05/03 06:44:38;;;;;;;4.23;3.73;;;13.90;99.90;;;;;;6283427;28;20907;-53
2022/05/03 06:47:41;;;;;;;3.53;3.23;;;14.20;99.90;;;;;;6276351;28;20673;-53
2022/05/03 06:50:43;;;;;;;3.63;3.33;;;14.60;99.90;;;;;;6282917;28;20248;-53
2022/05/03 06:53:46;;;;;;;3.63;3.53;;;14.90;99.90;;;;;;6283041;28;20228;-53
2022/05/03 06:56:50;;;;;;;7.63;4.30;;;14.90;99.90;;;;;;6276280;28;20367;-53
2022/05/03 06:59:54;;;;;;;4.23;3.83;;;14.90;99.90;;;;;;6281098;28;20304;-53
2022/05/03 07:02:56;;;;;;;4.07;3.40;;;15.00;99.90;;;;;;6282098;28;20821;-53
2022/05/03 07:06:03;;;;;;;3.43;3.20;;;15.30;99.90;;;;;;6278401;28;20249;-53
2022/05/03 07:09:06;;;;;;;5.33;3.10;;;15.30;99.90;;;;;;6271121;28;20335;-52
2022/05/03 07:12:09;;;;;;;3.67;3.37;;;15.50;99.90;;;;;;6279897;28;20369;-53
2022/05/03 07:15:13;;;;;;;6.23;3.30;;;15.70;99.90;;;;;;6281562;28;20237;-53
2022/05/03 07:24:57;;;;;;;3.97;3.87;;;15.90;99.90;;;;;;6278944;28;20256;-54
2022/05/03 07:28:00;;;;;;;7.53;4.23;;;15.90;99.90;;;;;;6291767;28;20323;-54
2022/05/03 07:31:04;;;;;;;9.50;4.00;;;15.90;99.90;;;;;;6307126;28;20716;-54
2022/05/03 07:34:07;;;;;;;3.90;3.70;;;15.90;99.90;;;;;;6300190;28;20659;-54
2022/05/03 07:37:09;;;;;;;8.27;4.20;;;15.80;99.90;;;;;;6305588;28;20245;-53
2022/05/03 07:40:13;;;;;;;3.80;3.67;;;15.90;99.90;;;;;;6286752;28;20466;-54
2022/05/03 07:43:16;;;;;;;6.33;3.97;;;16.00;99.90;;;;;;6280208;28;20411;-54
2022/05/03 07:46:20;;;;;;;6.50;4.10;;;16.10;99.90;;;;;;6280491;28;20681;-55
2022/05/03 07:49:22;;;;;;;4.40;3.97;;;16.10;99.90;;;;;;6269302;28;20316;-52
2022/05/03 07:52:27;;;;;;;4.30;3.90;;;16.10;99.90;;;;;;6285124;28;20300;-54
2022/05/03 07:55:31;;;;;;;5.50;3.47;;;16.20;99.90;;;;;;6275541;28;20319;-54
2022/05/03 07:58:35;;;;;;;4.00;3.70;;;16.10;99.90;;;;;;6282166;28;20237;-53
2022/05/03 08:01:41;;;;;;;3.60;3.40;;;16.20;99.90;;;;;;6286489;27;20298;-53
2022/05/03 08:04:43;;;;;;;4.10;3.90;;;16.10;99.90;;;;;;6288350;28;20764;-55
2022/05/03 08:07:47;;;;;;;4.40;4.00;;;16.10;99.90;;;;;;6279425;27;20308;-54
2022/05/03 08:10:50;;;;;;;5.87;3.87;;;16.00;99.90;;;;;;6286754;28;20608;-53
2022/05/03 08:13:53;;;;;;;7.60;3.80;;;15.90;99.90;;;;;;6309571;28;20255;-54
2022/05/03 08:16:57;;;;;;;4.73;4.13;;;15.70;99.90;;;;;;6304285;28;20748;-53
2022/05/03 08:20:00;;;;;;;6.73;4.33;;;15.70;99.90;;;;;;6311863;28;20255;-54
2022/05/03 08:23:03;;;;;;;7.00;4.10;;;15.90;99.90;;;;;;6307185;28;20266;-53
2022/05/03 08:26:06;;;;;;;4.60;4.43;;;15.80;99.90;;;;;;6295992;28;20372;-54
2022/05/03 08:29:09;;;;;;;4.50;4.20;;;15.90;99.90;;;;;;6314318;28;20390;-54
2022/05/03 08:32:13;;;;;;;4.20;3.90;;;15.90;99.90;;;;;;6305230;28;20313;-54
2022/05/03 08:35:16;;;;;;;6.50;4.40;;;15.90;99.90;;;;;;6296611;28;20228;-54
2022/05/03 08:45:01;;;;;;;4.73;4.47;;;15.90;99.90;;;;;;6279856;28;20688;-53
2022/05/03 08:48:07;;;;;;;4.97;4.17;;;15.80;99.90;;;;;;6284919;28;20244;-53
2022/05/03 08:51:14;;;;;;;4.00;3.70;;;15.80;99.90;;;;;;6268768;28;20257;-53
2022/05/03 08:54:16;;;;;;;5.50;4.03;;;16.10;99.90;;;;;;6302765;28;20326;-53
2022/05/03 08:57:19;;;;;;;4.00;3.60;;;16.10;99.90;;;;;;6304036;28;20465;-54
2022/05/03 09:00:23;;;;;;;4.33;4.03;;;16.30;99.90;;;;;;6305010;28;20382;-53
2022/05/03 09:03:27;;;;;;;4.20;3.90;;;16.40;99.90;;;;;;6307175;28;20236;-53
2022/05/03 09:06:45;;;;;;;3.70;3.40;;;16.60;99.90;;;;;;6304189;28;20680;-53
2022/05/03 09:09:48;;;;;;;3.63;3.33;;;16.80;99.90;;;;;;6273015;28;20240;-49
2022/05/03 09:13:14;;;;;;;7.00;3.83;;;16.30;99.90;;;;;;6284387;28;20237;-53
2022/05/03 09:16:20;;;;;;;3.90;3.60;;;16.50;99.90;;;;;;6276412;28;20774;-53
2022/05/03 09:19:26;;;;;;;5.53;3.90;;;16.50;99.90;;;;;;6283023;28;20326;-53
2022/05/03 09:25:49;;;;;;;4.23;3.33;;;16.60;99.90;;;;;;6274081;28;20317;-54
2022/05/03 09:28:53;;;;;;;3.13;3.00;;;16.70;99.90;;;;;;6301373;28;20254;-53
2022/05/03 09:31:57;;;;;;;4.03;3.10;;;16.80;99.90;;;;;;6320048;28;20344;-54
2022/05/03 09:35:01;;;;;;;3.37;3.20;;;17.00;99.90;;;;;;6305857;27;20834;-54
2022/05/03 09:38:06;;;;;;;3.10;2.90;;;17.10;99.90;;;;;;6308263;28;20240;-53
2022/05/03 09:41:14;;;;;;;2.87;2.80;;;17.20;99.90;;;;;;6274971;28;20230;-53
2022/05/03 09:44:16;;;;;;;2.67;2.60;;;17.20;99.90;;;;;;6311460;28;20342;-54
2022/05/03 09:47:21;;;;;;;3.33;3.13;;;17.20;99.90;;;;;;6311626;28;20295;-54
2022/05/03 09:50:43;;;;;;;2.70;2.60;;;17.30;99.90;;;;;;6308969;28;20232;-53
2022/05/03 09:53:56;;;;;;;2.93;2.83;;;17.40;99.90;;;;;;6294549;28;20608;-52
2022/05/03 09:56:59;;;;;;;2.70;2.60;;;17.60;99.90;;;;;;6306296;28;20245;-53
2022/05/03 10:00:04;;;;;;;2.70;2.60;;;17.60;99.90;;;;;;6308872;28;20236;-52
2022/05/03 10:03:09;;;;;;;5.73;2.80;;;17.60;99.90;;;;;;6313161;28;20756;-53
2022/05/03 10:06:14;;;;;;;3.10;2.80;;;17.70;99.90;;;;;;6308024;28;20236;-51
2022/05/03 10:09:16;;;;;;;2.40;2.40;;;17.70;99.90;;;;;;6304258;28;20267;-54
2022/05/03 10:12:20;;;;;;;3.00;2.57;;;17.70;99.90;;;;;;6309118;28;20381;-54
2022/05/03 10:22:12;;;;;;;2.70;2.50;;;17.90;99.90;;;;;;6304875;28;20797;-53
2022/05/03 10:25:16;;;;;;;2.97;2.30;;;18.00;99.90;;;;;;6305519;28;20624;-53
2022/05/03 10:28:18;;;;;;;2.73;2.57;;;18.00;99.90;;;;;;6307925;28;20235;-53
2022/05/03 10:31:22;;;;;;;2.90;2.60;;;18.10;99.90;;;;;;6308340;28;20316;-54
2022/05/03 10:34:51;;;;;;;2.77;2.67;;;18.10;99.90;;;;;;6307281;28;20475;-54
2022/05/03 10:38:10;;;;;;;5.90;2.60;;;18.30;99.90;;;;;;6302100;28;20374;-54
2022/05/03 10:41:24;;;;;;;3.20;3.00;;;18.40;99.90;;;;;;6297620;28;20831;-53
2022/05/03 10:44:44;;;;;;;2.67;2.50;;;18.40;99.90;;;;;;6302224;28;20225;-53
2022/05/03 10:47:49;;;;;;;3.53;2.63;;;18.10;99.90;;;;;;6297402;28;20247;-53
2022/05/03 10:50:58;;;;;;;3.50;3.20;;;18.10;99.90;;;;;;6308081;28;20235;-54
2022/05/03 10:54:04;;;;;;;4.37;2.73;;;18.20;99.90;;;;;;6307211;28;20517;-53
2022/05/03 10:57:08;;;;;;;4.60;3.00;;;18.30;99.90;;;;;;6308355;28;20272;-53
2022/05/03 11:00:12;;;;;;;2.83;2.73;;;18.30;99.90;;;;;;6307522;28;20254;-54
2022/05/03 11:03:21;;;;;;;2.50;2.50;;;18.30;99.90;;;;;;6306812;28;20445;-54
2022/05/03 11:06:38;;;;;;;2.27;2.20;;;18.30;99.90;;;;;;6306418;28;20295;-53
2022/05/03 11:09:43;;;;;;;2.40;2.20;;;18.50;99.90;;;;;;6282369;28;20725;-53
2022/05/03 11:12:51;;;;;;;2.60;2.40;;;18.50;99.90;;;;;;6279927;28;20233;-54
2022/05/03 11:16:23;;;;;;;2.70;2.70;;;18.60;99.90;;;;;;6300711;28;20838;-54
2022/05/03 11:19:26;;;;;;;2.80;2.33;;;18.40;99.90;;;;;;6291599;28;20234;-53
2022/05/03 11:22:32;;;;;;;7.00;2.30;;;18.30;99.90;;;;;;6282011;28;20335;-54
2022/05/03 11:25:39;;;;;;;2.40;2.40;;;18.40;99.90;;;;;;6314348;28;20243;-54
2022/05/03 11:28:45;;;;;;;2.40;2.23;;;18.50;99.90;;;;;;6308472;28;20271;-54
2022/05/03 11:31:49;;;;;;;2.73;2.07;;;18.50;99.90;;;;;;6307384;28;20735;-54
2022/05/03 11:34:52;;;;;;;2.33;2.13;;;18.70;99.90;;;;;;6299098;28;20235;-53
2022/05/03 11:37:56;;;;;;;2.43;2.43;;;18.80;99.90;;;;;;6301618;28;20289;-53
2022/05/03 11:41:04;;;;;;;2.20;2.10;;;18.70;99.90;;;;;;6306612;28;20509;-53
2022/05/03 11:44:07;;;;;;;2.97;2.50;;;18.70;99.90;;;;;;6305532;28;20243;-55
2022/05/03 11:47:11;;;;;;;3.33;2.30;;;18.80;99.90;;;;;;6307725;28;20302;-54
2022/05/03 11:55:58;;;;;;;2.53;2.33;;;19.10;99.90;;;;;;6302539;28;20232;-53
2022/05/03 11:57:00;;;;;;;2.50;2.40;;;19.00;99.90;;;;;;6276295;28;20237;-53
2022/05/03 12:00:05;;;;;;;2.20;2.13;;;18.90;99.90;;;;;;6306512;28;20688;-53
2022/05/03 12:03:08;;;;;;;2.40;2.30;;;19.00;99.90;;;;;;6297689;28;20229;-53
2022/05/03 12:06:11;;;;;;;2.20;2.00;;;18.80;99.90;;;;;;6301722;28;20323;-51
2022/05/03 12:09:18;;;;;;;2.20;2.10;;;18.90;99.90;;;;;;6308378;28;20315;-52
2022/05/03 12:15:50;;;;;;;2.03;1.87;;;18.90;99.90;;;;;;6310907;28;20643;-53
2022/05/03 12:18:55;;;;;;;2.53;2.03;;;18.90;99.90;;;;;;6307370;28;20232;-53
2022/05/03 12:22:08;;;;;;;1.90;1.90;;;19.10;99.90;;;;;;6279738;28;20326;-53
2022/05/03 12:25:11;;;;;;;2.17;2.00;;;19.00;99.90;;;;;;6295860;28;20408;-54
2022/05/03 12:28:16;;;;;;;1.70;1.70;;;19.00;99.90;;;;;;6304423;28;20378;-54
2022/05/03 12:31:20;;;;;;;1.70;1.70;;;19.20;99.90;;;;;;6310373;28;20245;-53
2022/05/03 12:34:25;;;;;;;1.80;1.80;;;19.50;99.90;;;;;;6301867;28;20367;-54
2022/05/03 12:37:28;;;;;;;1.90;1.87;;;19.50;99.90;;;;;;6290281;28;20271;-53
2022/05/03 12:40:32;;;;;;;1.40;1.40;;;19.50;99.90;;;;;;6291255;28;20620;-53
2022/05/03 12:43:36;;;;;;;2.67;1.53;;;19.60;99.90;;;;;;6325737;28;20749;-55
2022/05/03 12:46:39;;;;;;;1.70;1.70;;;19.70;99.90;;;;;;6285907;28;20593;-52
2022/05/03 12:49:42;;;;;;;1.80;1.70;;;19.80;99.90;;;;;;6280120;28;20252;-52
2022/05/03 12:52:47;;;;;;;5.80;1.90;;;19.90;99.90;;;;;;6306108;28;20328;-53
2022/05/03 12:55:49;;;;;;;1.53;1.53;;;19.80;99.90;;;;;;6307613;28;20247;-54
2022/05/03 12:58:52;;;;;;;3.57;1.63;;;19.80;99.90;;;;;;6310152;28;20306;-55
2022/05/03 13:01:57;;;;;;;2.50;1.73;;;20.00;99.90;;;;;;6309286;28;20325;-54
2022/05/03 13:05:01;;;;;;;1.50;1.50;;;20.10;99.90;;;;;;6273068;28;20718;-53
2022/05/03 13:08:04;;;;;;;1.73;1.63;;;20.40;99.90;;;;;;6285423;28;20232;-54
2022/05/03 13:11:13;;;;;;;1.77;1.60;;;20.50;99.90;;;;;;6306451;27;20805;-53
2022/05/03 13:14:28;;;;;;;1.70;1.70;;;20.70;99.90;;;;;;6310463;28;20304;-53
2022/05/03 13:17:32;;;;;;;1.70;1.70;;;20.70;99.90;;;;;;6309971;28;20268;-53
2022/05/03 13:20:39;;;;;;;1.60;1.60;;;20.60;99.90;;;;;;6309512;28;20506;-53
2022/05/03 13:23:42;;;;;;;1.77;1.77;;;20.60;99.90;;;;;;6309195;28;20252;-54
2022/05/03 13:26:46;;;;;;;1.60;1.50;;;20.50;99.90;;;;;;6284333;28;20229;-54
2022/05/03 13:29:50;;;;;;;4.33;1.70;;;20.50;99.90;;;;;;6283315;28;20343;-53
2022/05/03 13:32:56;;;;;;;1.80;1.70;;;20.40;99.90;;;;;;6281859;28;20756;-54
2022/05/03 13:42:42;;;;;;;1.83;1.73;;;20.10;99.90;;;;;;6279760;28;20682;-53
2022/05/03 13:45:46;;;;;;;3.80;1.80;;;19.90;99.90;;;;;;6283052;28;20253;-53
2022/05/03 13:49:00;;;;;;;1.70;1.60;;;19.60;99.90;;;;;;6282475;28;20671;-53
2022/05/03 13:52:03;;;;;;;1.53;1.53;;;19.40;99.90;;;;;;6275091;28;20375;-46
2022/05/03 13:55:06;;;;;;;1.73;1.70;;;19.40;99.90;;;;;;6281660;28;20238;-54
2022/05/03 13:58:11;;;;;;;2.57;2.37;;;19.60;99.90;;;;;;6289725;28;20240;-53
2022/05/03 14:01:15;;;;;;;2.40;2.20;;;19.70;99.90;;;;;;6281227;28;20740;-53
2022/05/03 14:04:19;;;;;;;2.87;2.10;;;19.70;99.90;;;;;;6282463;28;20312;-54
2022/05/03 14:07:24;;;;;;;2.93;2.23;;;19.60;99.90;;;;;;6281507;28;20324;-54
2022/05/03 14:10:30;;;;;;;2.10;2.00;;;19.70;99.90;;;;;;6278141;28;20616;-53
2022/05/03 14:13:34;;;;;;;2.00;2.00;;;19.60;99.90;;;;;;6283109;28;20665;-53
2022/05/03 14:16:39;;;;;;;2.20;2.10;;;19.50;99.90;;;;;;6284032;28;20280;-53
2022/05/03 14:19:42;;;;;;;2.30;2.20;;;19.50;99.90;;;;;;6279295;28;20350;-53
2022/05/03 14:22:44;;;;;;;2.10;2.00;;;19.70;99.90;;;;;;6280967;28;20251;-53
2022/05/03 14:25:48;;;;;;;2.00;2.00;;;19.90;99.90;;;;;;6275765;28;20386;-53
2022/05/03 14:28:52;;;;;;;2.10;2.10;;;19.90;99.90;;;;;;6282523;28;20365;-53
2022/05/03 14:31:57;;;;;;;2.10;2.00;;;19.90;99.90;;;;;;6283019;28;20362;-54
2022/05/03 14:35:01;;;;;;;2.50;2.30;;;20.00;99.90;;;;;;6273923;28;20243;-53
2022/05/03 14:38:04;;;;;;;2.10;2.10;;;19.90;99.90;;;;;;6282320;28;20695;-53
2022/05/03 14:41:07;;;;;;;6.23;2.40;;;19.80;99.90;;;;;;6279542;28;20626;-53
2022/05/03 14:44:12;;;;;;;2.97;2.87;;;19.70;99.90;;;;;;6282378;28;20305;-55
2022/05/03 14:47:16;;;;;;;2.37;2.17;;;19.60;99.90;;;;;;6281661;28;20486;-53
2022/05/03 14:50:18;;;;;;;2.73;2.57;;;19.50;99.90;;;;;;6292882;28;20321;-54
2022/05/03 14:53:21;;;;;;;2.43;2.30;;;19.70;99.90;;;;;;6283331;28;20502;-54
2022/05/03 15:03:06;;;;;;;2.03;2.03;;;19.70;99.90;;;;;;6280126;28;20245;-54
2022/05/03 15:06:09;;;;;;;2.80;2.53;;;19.60;99.90;;;;;;6277907;28;20824;-53
2022/05/03 15:09:12;;;;;;;2.37;2.37;;;19.50;99.90;;;;;;6300732;28;20386;-54
2022/05/03 15:12:15;;;;;;;2.83;2.43;;;19.50;99.90;;;;;;6279652;28;20241;-54
2022/05/03 15:15:21;;;;;;;2.43;2.23;;;19.40;99.90;;;;;;6293470;28;20286;-53
2022/05/03 15:18:25;;;;;;;1.97;1.97;;;19.30;99.90;;;;;;6310824;28;20313;-54
2022/05/03 15:21:28;;;;;;;2.63;2.43;;;19.30;99.90;;;;;;6310037;28;20228;-53
2022/05/03 15:24:36;;;;;;;2.53;2.53;;;19.40;99.90;;;;;;6310122;28;20476;-54
2022/05/03 15:27:40;;;;;;;4.73;2.63;;;19.40;99.90;;;;;;6266591;28;20261;-53
2022/05/03 15:30:47;;;;;;;2.80;2.60;;;19.30;99.90;;;;;;6277806;28;20312;-54
2022/05/03 15:34:01;;;;;;;2.47;2.47;;;19.20;99.90;;;;;;6277793;28;20815;-53
2022/05/03 15:37:04;;;;;;;3.87;2.70;;;18.90;99.90;;;;;;6283207;28;20868;-54
2022/05/03 15:40:10;;;;;;;3.13;2.90;;;18.70;99.90;;;;;;6273829;28;20994;-53
2022/05/03 15:43:13;;;;;;;2.20;2.10;;;18.70;99.90;;;;;;6280624;28;20332;-53
2022/05/03 15:46:15;;;;;;;2.67;2.47;;;18.90;99.90;;;;;;6281026;28;20492;-53
2022/05/03 15:49:20;;;;;;;2.70;2.60;;;19.40;99.90;;;;;;6276320;28;21100;-54
2022/05/03 15:52:22;;;;;;;3.20;2.90;;;19.60;99.90;;;;;;6280594;28;20310;-53
2022/05/03 15:55:25;;;;;;;2.80;2.60;;;19.60;99.90;;;;;;6278379;28;20318;-53
2022/05/03 15:58:32;;;;;;;3.27;3.17;;;19.50;99.90;;;;;;6276396;28;20522;-53
2022/05/03 16:01:35;;;;;;;3.53;2.77;;;19.40;99.90;;;;;;6301585;27;20320;-53
2022/05/03 16:04:39;;;;;;;2.10;2.10;;;19.30;99.90;;;;;;6297804;28;20444;-52
2022/05/03 16:07:42;;;;;;;2.83;2.73;;;19.20;99.90;;;;;;6276630;28;20718;-53
2022/05/03 16:10:46;;;;;;;2.47;2.47;;;19.20;99.90;;;;;;6287289;28;20283;-53
2022/05/03 16:13:49;;;;;;;2.43;2.43;;;19.30;99.90;;;;;;6306275;28;20305;-53
2022/05/03 16:16:52;;;;;;;2.50;2.40;;;19.40;99.90;;;;;;6306604;28;20358;-53
2022/05/03 16:20:01;;;;;;;3.00;2.70;;;19.50;99.90;;;;;;6310751;28;20288;-53
2022/05/03 16:23:04;;;;;;;2.80;2.60;;;19.40;99.90;;;;;;6305064;28;20336;-53
2022/05/03 16:26:07;;;;;;;2.37;2.17;;;19.20;99.90;;;;;;6310780;28;20566;-53
2022/05/03 16:29:10;;;;;;;2.40;2.40;;;19.30;99.90;;;;;;6277732;28;20245;-53
2022/05/03 16:32:13;;;;;;;2.07;2.07;;;19.20;99.90;;;;;;6276972;28;20233;-53
2022/05/03 16:35:18;;;;;;;3.13;2.77;;;18.80;99.90;;;;;;6293114;28;20370;-53
2022/05/03 16:45:03;;;;;;;3.90;2.63;;;18.60;99.90;;;;;;6286544;28;20242;-54
2022/05/03 16:48:06;;;;;;;3.30;3.00;;;18.40;99.90;;;;;;6285038;28;20245;-53
2022/05/03 16:51:13;;;;;;;2.70;2.70;;;18.30;99.90;;;;;;6280998;28;20237;-54
2022/05/03 16:54:16;;;;;;;3.10;2.83;;;18.10;99.90;;;;;;6279902;28;20240;-54
2022/05/03 16:57:19;;;;;;;5.87;5.27;;;18.00;99.90;;;;;;6285029;28;20637;-54
2022/05/03 17:00:22;;;;;;;2.60;2.60;;;17.90;99.90;;;;;;6297766;28;20282;-53
2022/05/03 17:03:24;;;;;;;2.97;2.77;;;17.80;99.90;;;;;;6294960;28;20255;-52
2022/05/03 17:06:29;;;;;;;2.33;2.33;;;17.80;99.90;;;;;;6301179;28;20331;-54
2022/05/03 17:09:32;;;;;;;4.23;2.50;;;17.70;99.90;;;;;;6306338;28;20329;-53